• Join FlightAware (Why Join?)
  • Login
  • US Flag 
03:43AM EDT


 

Airport Tracker/Info


-or-


 

Live Flight TrackerFlight Track Log ✈ SWA2004 ✈ 28-Apr-2013 ✈ KBDL - KBWI

Flight Track Log - Related Links

Times and Time Zones

All times are in EDT time to prevent confusion due to time zone crossing. See the SWA2004 flight status page for this flight to view local times or setup timezone preferences in your user account.

Time Position Orientation Groundspeed Altitude Reporting Facility
EDT Latitude Longitude Course Direction KTS MPH feet Rate Location/Type
01:22PM 41.9225 -72.8419 267° West 222 255 4,800  Level Boston Center
01:23PM 41.9219 -72.9450 270° West 250 288 9,100 3,780 Climbing Boston Center
01:24PM 41.9194 -73.0483 268° West 291 335 12,400 3,480 Climbing Boston Center
01:25PM 41.9144 -73.1906 267° West 338 389 16,100 3,360 Climbing Boston Center
01:26PM 41.8967 -73.3297 260° West 374 430 19,200 3,300 Climbing Boston Center
01:27PM 41.8353 -73.4486 235° Southwest 379 436 22,700 2,940 Climbing Boston Center
01:30PM 41.5736 -73.5858 201° Southwest 404 465 29,600 2,040 Climbing New York Center
01:31PM 41.4642 -73.6392 200° South 414 476 30,000 180 Climbing New York Center
01:32PM 41.3567 -73.6956 201° Southwest 414 476 30,000  Level New York Center
01:33PM 41.2511 -73.7489 201° Southwest 414 476 30,000  Level New York Center
01:34PM 41.1517 -73.8133 206° Southwest 414 476 30,000  Level New York Center
01:35PM 41.0819 -73.9231 230° Southwest 393 452 30,000 -120 Level New York Center
01:36PM 41.0144 -74.0325 231° Southwest 387 445 29,800 -720 Descending New York Center
01:37PM 40.9447 -74.1472 231° Southwest 392 451 28,600 -900 Descending New York Center
01:38PM 40.8747 -74.2592 230° Southwest 397 457 28,000 -360 Descending New York Center
01:39PM 40.8067 -74.3708 231° Southwest 403 464 28,000  Level New York Center
01:40PM 40.7386 -74.4875 232° Southwest 403 464 28,000 -180 Level New York Center
01:41PM 40.6767 -74.6019 235° Southwest 403 464 27,700 -600 Descending New York Center
01:42PM 40.6308 -74.7278 244° Southwest 392 451 26,800 -1,020 Descending New York Center
01:43PM 40.5889 -74.8567 247° West 387 445 25,800 -1,020 Descending New York Center
01:44PM 40.5467 -74.9881 247° West 387 445 24,800 -1,020 Descending New York Center
01:45PM 40.4944 -75.1047 240° Southwest 387 445 23,800 -960 Descending New York Center
01:46PM 40.4258 -75.2122 230° Southwest 387 445 22,900 -960 Descending New York Center
01:47PM 40.3592 -75.3197 231° Southwest 387 445 21,900 -1,020 Descending New York Center
01:48PM 40.2856 -75.3964 218° Southwest 382 440 20,900 -1,020 Descending New York Center
01:49PM 40.1972 -75.4639 210° Southwest 382 440 19,900 -1,020 Descending New York Center
01:50PM 40.1028 -75.5336 209° Southwest 382 440 18,900 -1,020 Descending New York Center
01:51PM 40.0061 -75.6056 210° Southwest 387 445 18,000 -480 Descending New York Center
01:52PM 39.9286 -75.6653 211° Southwest 377 434 18,000 -540 Level New York Center
01:53PM 39.8633 -75.7769 233° Southwest 354 407 17,000 -1,260 Descending New York Center
01:55PM 39.7500 -76.0000 237° Southwest 341 392 14,100 -1,560 Descending Potomac TRACON
01:56PM 39.7000 -76.1000 237° Southwest 325 374 12,200 -1,380 Descending Potomac TRACON
01:57PM 39.6500 -76.1833 232° Southwest 291 335 11,500 -900 Descending Potomac TRACON
01:58PM 39.6167 -76.2667 243° Southwest 280 322 10,500 -1,200 Descending Potomac TRACON
01:59PM 39.5833 -76.3500 243° Southwest 276 318 9,200 -1,380 Descending Potomac TRACON
02:00PM 39.5500 -76.4333 243° Southwest 269 310 7,800 -1,560 Descending Potomac TRACON
02:01PM 39.5167 -76.5333 247° West 268 308 6,100 -1,500 Descending Potomac TRACON
02:02PM 39.4833 -76.6000 237° Southwest 259 298 5,000 -1,200 Descending Potomac TRACON
02:03PM 39.4500 -76.6667 237° Southwest 253 291 4,000 -540 Descending Potomac TRACON
02:04PM 39.4167 -76.7667 247° West 251 289 4,000 -480 Level Potomac TRACON
02:05PM 39.3667 -76.8167 218° Southwest 243 280 3,000 -540 Descending Potomac TRACON
02:06PM 39.3000 -76.8333 191° South 227 261 3,000  Level Potomac TRACON
02:07PM 39.2500 -76.8333 180° South 234 269 3,000 -240 Level Potomac TRACON
02:08PM 39.2000 -76.8000 153° Southeast 198 228 2,600 -840 Descending Potomac TRACON
02:09PM 39.1833 -76.7500 113° Southeast 140 161 1,400 -1,080 Descending Potomac TRACON
02:10PM 39.1833 -76.7167 90° East 128 147 500 -900 Descending Potomac TRACON
02:12PM 39.1667 -76.6667 270° West  Level FlightAware Approximate
02:19PM 39.1754 -76.6683 270° West  Level Estimated
02:20PM 39.1754 -76.6683 270° West  Level Estimated
02:21PM 39.1754 -76.6683 270° West  Level Estimated